sensor_id;sensor_type;location;lat;lon;timestamp;pressure;altitude;pressure_sealevel;temperature;humidity
8585;BME280;7180;52.742;11.420;2023-02-13T00:00:53;103230.69;;;7.28;100.00
8585;BME280;7180;52.742;11.420;2023-02-13T00:03:19;103233.31;;;7.25;100.00
8585;BME280;7180;52.742;11.420;2023-02-13T00:05:44;103237.66;;;7.26;100.00
8585;BME280;7180;52.742;11.420;2023-02-13T00:08:09;103237.66;;;7.28;100.00
8585;BME280;7180;52.742;11.420;2023-02-13T00:10:36;103229.81;;;7.25;100.00
8585;BME280;7180;52.742;11.420;2023-02-13T00:13:01;103231.56;;;7.24;100.00
8585;BME280;7180;52.742;11.420;2023-02-13T00:15:26;103231.56;;;7.24;100.00
8585;BME280;7180;52.742;11.420;2023-02-13T00:17:51;103225.44;;;7.22;100.00
8585;BME280;7180;52.742;11.420;2023-02-13T00:20:17;103232.44;;;7.25;100.00
8585;BME280;7180;52.742;11.420;2023-02-13T00:22:42;103230.69;;;7.25;100.00
8585;BME280;7180;52.742;11.420;2023-02-13T00:25:08;103232.41;;;7.26;100.00
8585;BME280;7180;52.742;11.420;2023-02-13T00:27:33;103223.69;;;7.27;100.00
8585;BME280;7180;52.742;11.420;2023-02-13T00:29:59;103221.06;;;7.26;100.00
8585;BME280;7180;52.742;11.420;2023-02-13T00:32:24;103223.72;;;7.21;100.00
8585;BME280;7180;52.742;11.420;2023-02-13T00:34:50;103224.59;;;7.23;100.00
8585;BME280;7180;52.742;11.420;2023-02-13T00:37:15;103232.41;;;7.26;100.00
8585;BME280;7180;52.742;11.420;2023-02-13T00:39:40;103231.56;;;7.23;100.00
8585;BME280;7180;52.742;11.420;2023-02-13T00:42:06;103228.97;;;7.18;100.00
8585;BME280;7180;52.742;11.420;2023-02-13T00:44:31;103227.22;;;7.17;100.00
8585;BME280;7180;52.742;11.420;2023-02-13T00:46:57;103230.69;;;7.21;100.00
8585;BME280;7180;52.742;11.420;2023-02-13T00:49:22;103238.53;;;7.21;100.00
8585;BME280;7180;52.742;11.420;2023-02-13T00:51:47;103239.44;;;7.18;100.00
8585;BME280;7180;52.742;11.420;2023-02-13T00:54:12;103246.41;;;7.16;100.00
8585;BME280;7180;52.742;11.420;2023-02-13T00:56:38;103242.03;;;7.20;100.00
8585;BME280;7180;52.742;11.420;2023-02-13T00:59:03;103234.22;;;7.18;100.00
8585;BME280;7180;52.742;11.420;2023-02-13T01:01:28;103222.88;;;7.16;100.00
8585;BME280;7180;52.742;11.420;2023-02-13T01:03:54;103222.00;;;7.11;100.00
8585;BME280;7180;52.742;11.420;2023-02-13T01:06:19;103219.38;;;7.10;100.00
8585;BME280;7180;52.742;11.420;2023-02-13T01:08:44;103226.38;;;7.12;100.00
8585;BME280;7180;52.742;11.420;2023-02-13T01:11:09;103227.25;;;7.13;100.00
8585;BME280;7180;52.742;11.420;2023-02-13T01:13:35;103218.50;;;7.12;100.00
8585;BME280;7180;52.742;11.420;2023-02-13T01:16:00;103213.28;;;7.06;100.00
8585;BME280;7180;52.742;11.420;2023-02-13T01:18:26;103215.88;;;7.08;100.00
8585;BME280;7180;52.742;11.420;2023-02-13T01:21:03;103211.53;;;7.10;100.00
8585;BME280;7180;52.742;11.420;2023-02-13T01:23:35;103214.16;;;7.10;100.00
8585;BME280;7180;52.742;11.420;2023-02-13T01:26:05;103215.03;;;7.07;100.00
8585;BME280;7180;52.742;11.420;2023-02-13T01:28:30;103208.94;;;7.05;100.00
8585;BME280;7180;52.742;11.420;2023-02-13T01:30:56;103206.31;;;7.08;100.00
8585;BME280;7180;52.742;11.420;2023-02-13T01:33:23;103199.38;;;6.98;100.00
8585;BME280;7180;52.742;11.420;2023-02-13T01:35:49;103197.59;;;7.03;100.00
8585;BME280;7180;52.742;11.420;2023-02-13T01:38:15;103199.34;;;7.04;100.00
8585;BME280;7180;52.742;11.420;2023-02-13T01:40:46;103195.84;;;7.05;100.00
8585;BME280;7180;52.742;11.420;2023-02-13T01:43:11;103186.28;;;7.01;100.00
8585;BME280;7180;52.742;11.420;2023-02-13T01:45:37;103191.53;;;6.98;100.00
8585;BME280;7180;52.742;11.420;2023-02-13T01:48:06;103188.00;;;7.01;100.00
8585;BME280;7180;52.742;11.420;2023-02-13T01:50:37;103199.34;;;7.01;100.00
8585;BME280;7180;52.742;11.420;2023-02-13T01:53:09;103195.00;;;7.02;100.00
8585;BME280;7180;52.742;11.420;2023-02-13T01:55:42;103192.38;;;7.03;100.00
8585;BME280;7180;52.742;11.420;2023-02-13T01:58:13;103199.34;;;6.95;100.00
8585;BME280;7180;52.742;11.420;2023-02-13T02:00:43;103201.06;;;7.02;100.00
8585;BME280;7180;52.742;11.420;2023-02-13T02:03:26;103196.72;;;7.03;100.00
8585;BME280;7180;52.742;11.420;2023-02-13T02:05:55;103195.88;;;6.96;100.00
8585;BME280;7180;52.742;11.420;2023-02-13T02:08:22;103192.41;;;6.94;100.00
8585;BME280;7180;52.742;11.420;2023-02-13T02:10:48;103191.53;;;6.91;100.00
8585;BME280;7180;52.742;11.420;2023-02-13T02:13:16;103188.03;;;6.92;100.00
8585;BME280;7180;52.742;11.420;2023-02-13T02:15:43;103187.19;;;6.91;100.00
8585;BME280;7180;52.742;11.420;2023-02-13T02:18:27;103186.28;;;6.95;100.00
8585;BME280;7180;52.742;11.420;2023-02-13T02:29:56;103184.56;;;6.93;100.00
8585;BME280;7180;52.742;11.420;2023-02-13T02:43:54;103191.53;;;6.92;100.00
8585;BME280;7180;52.742;11.420;2023-02-13T02:46:38;103191.53;;;6.94;100.00
8585;BME280;7180;52.742;11.420;2023-02-13T02:49:26;103188.03;;;6.92;100.00
8585;BME280;7180;52.742;11.420;2023-02-13T02:52:17;103188.94;;;6.89;100.00
8585;BME280;7180;52.742;11.420;2023-02-13T02:54:49;103190.63;;;6.93;100.00
8585;BME280;7180;52.742;11.420;2023-02-13T02:57:33;103177.56;;;6.96;100.00
8585;BME280;7180;52.742;11.420;2023-02-13T03:00:21;103183.66;;;6.95;100.00
8585;BME280;7180;52.742;11.420;2023-02-13T03:03:17;103178.44;;;6.95;100.00
8585;BME280;7180;52.742;11.420;2023-02-13T03:06:08;103168.88;;;6.91;100.00
8585;BME280;7180;52.742;11.420;2023-02-13T03:08:40;103166.25;;;6.88;100.00
8585;BME280;7180;52.742;11.420;2023-02-13T03:11:24;103175.84;;;6.86;100.00
8585;BME280;7180;52.742;11.420;2023-02-13T03:14:12;103172.38;;;6.87;100.00
8585;BME280;7180;52.742;11.420;2023-02-13T03:16:39;103168.00;;;6.86;100.00
8585;BME280;7180;52.742;11.420;2023-02-13T03:19:43;103170.59;;;6.88;100.00
8585;BME280;7180;52.742;11.420;2023-02-13T03:23:02;103171.50;;;6.85;100.00
8585;BME280;7180;52.742;11.420;2023-02-13T03:25:54;103168.00;;;6.86;100.00
8585;BME280;7180;52.742;11.420;2023-02-13T03:28:27;103170.63;;;6.85;100.00
8585;BME280;7180;52.742;11.420;2023-02-13T03:31:41;103157.53;;;6.83;100.00
8585;BME280;7180;52.742;11.420;2023-02-13T03:34:14;103174.09;;;6.90;100.00
8585;BME280;7180;52.742;11.420;2023-02-13T03:37:00;103166.22;;;6.90;100.00
8585;BME280;7180;52.742;11.420;2023-02-13T03:40:06;103170.59;;;6.86;100.00
8585;BME280;7180;52.742;11.420;2023-02-13T03:42:41;103173.22;;;6.85;100.00
8585;BME280;7180;52.742;11.420;2023-02-13T03:45:13;103175.84;;;6.85;100.00
8585;BME280;7180;52.742;11.420;2023-02-13T03:48:02;103180.19;;;6.84;100.00
8585;BME280;7180;52.742;11.420;2023-02-13T03:50:37;103178.44;;;6.86;100.00
8585;BME280;7180;52.742;11.420;2023-02-13T03:53:08;103176.72;;;6.88;100.00
8585;BME280;7180;52.742;11.420;2023-02-13T03:55:39;103181.94;;;6.88;100.00
8585;BME280;7180;52.742;11.420;2023-02-13T03:58:29;103179.31;;;6.90;100.00
8585;BME280;7180;52.742;11.420;2023-02-13T04:01:17;103177.56;;;6.84;100.00
8585;BME280;7180;52.742;11.420;2023-02-13T04:06:16;103178.47;;;6.83;100.00
8585;BME280;7180;52.742;11.420;2023-02-13T04:08:44;103169.72;;;6.84;100.00
8585;BME280;7180;52.742;11.420;2023-02-13T04:16:32;103171.50;;;6.85;100.00
8585;BME280;7180;52.742;11.420;2023-02-13T04:19:00;103167.13;;;6.86;100.00
8585;BME280;7180;52.742;11.420;2023-02-13T04:21:25;103167.13;;;6.83;100.00
8585;BME280;7180;52.742;11.420;2023-02-13T04:23:51;103167.16;;;6.80;100.00
8585;BME280;7180;52.742;11.420;2023-02-13T04:26:19;103168.00;;;6.86;100.00
8585;BME280;7180;52.742;11.420;2023-02-13T04:28:45;103168.88;;;6.85;100.00
8585;BME280;7180;52.742;11.420;2023-02-13T04:31:10;103173.22;;;6.86;100.00
8585;BME280;7180;52.742;11.420;2023-02-13T04:33:36;103169.75;;;6.81;100.00
8585;BME280;7180;52.742;11.420;2023-02-13T04:36:01;103162.78;;;6.80;100.00
8585;BME280;7180;52.742;11.420;2023-02-13T04:38:26;103155.81;;;6.79;100.00
8585;BME280;7180;52.742;11.420;2023-02-13T04:40:52;103159.28;;;6.81;100.00
8585;BME280;7180;52.742;11.420;2023-02-13T04:43:17;103155.81;;;6.79;100.00
8585;BME280;7180;52.742;11.420;2023-02-13T04:45:42;103162.78;;;6.82;100.00
8585;BME280;7180;52.742;11.420;2023-02-13T04:48:08;103158.41;;;6.85;100.00
8585;BME280;7180;52.742;11.420;2023-02-13T04:50:33;103151.44;;;6.81;100.00
8585;BME280;7180;52.742;11.420;2023-02-13T04:52:59;103157.53;;;6.86;100.00
8585;BME280;7180;52.742;11.420;2023-02-13T04:55:26;103154.06;;;6.87;100.00
8585;BME280;7180;52.742;11.420;2023-02-13T04:57:53;103153.19;;;6.87;100.00
8585;BME280;7180;52.742;11.420;2023-02-13T05:00:23;103154.91;;;6.92;100.00
8585;BME280;7180;52.742;11.420;2023-02-13T05:02:49;103152.28;;;6.92;100.00
8585;BME280;7180;52.742;11.420;2023-02-13T05:05:14;103153.16;;;6.93;100.00
8585;BME280;7180;52.742;11.420;2023-02-13T05:07:41;103151.41;;;6.92;100.00
8585;BME280;7180;52.742;11.420;2023-02-13T05:10:07;103148.78;;;6.93;100.00
8585;BME280;7180;52.742;11.420;2023-02-13T05:12:32;103152.28;;;6.98;100.00
8585;BME280;7180;52.742;11.420;2023-02-13T05:14:58;103147.06;;;6.92;100.00
8585;BME280;7180;52.742;11.420;2023-02-13T05:17:23;103141.84;;;6.89;100.00
8585;BME280;7180;52.742;11.420;2023-02-13T05:19:48;103138.34;;;6.90;100.00
8585;BME280;7180;52.742;11.420;2023-02-13T05:22:13;103140.97;;;6.87;100.00
8585;BME280;7180;52.742;11.420;2023-02-13T05:24:57;103143.59;;;6.87;100.00
8585;BME280;7180;52.742;11.420;2023-02-13T05:27:23;103134.00;;;6.85;100.00
8585;BME280;7180;52.742;11.420;2023-02-13T05:29:48;103128.75;;;6.85;100.00
8585;BME280;7180;52.742;11.420;2023-02-13T05:32:13;103135.75;;;6.83;100.00
8585;BME280;7180;52.742;11.420;2023-02-13T05:34:38;103138.38;;;6.80;100.00
8585;BME280;7180;52.742;11.420;2023-02-13T05:37:04;103143.59;;;6.81;100.00
8585;BME280;7180;52.742;11.420;2023-02-13T05:39:29;103150.59;;;6.78;100.00
8585;BME280;7180;52.742;11.420;2023-02-13T05:41:54;103151.44;;;6.83;100.00
8585;BME280;7180;52.742;11.420;2023-02-13T05:44:20;103156.69;;;6.78;100.00
8585;BME280;7180;52.742;11.420;2023-02-13T05:46:45;103151.44;;;6.81;100.00
8585;BME280;7180;52.742;11.420;2023-02-13T05:49:12;103154.94;;;6.79;100.00
8585;BME280;7180;52.742;11.420;2023-02-13T05:51:38;103154.06;;;6.72;100.00
8585;BME280;7180;52.742;11.420;2023-02-13T05:54:03;103158.44;;;6.72;100.00
8585;BME280;7180;52.742;11.420;2023-02-13T05:56:29;103155.81;;;6.70;100.00
8585;BME280;7180;52.742;11.420;2023-02-13T05:58:55;103162.78;;;6.74;100.00
8585;BME280;7180;52.742;11.420;2023-02-13T06:01:22;103156.69;;;6.72;100.00
8585;BME280;7180;52.742;11.420;2023-02-13T06:03:47;103162.78;;;6.74;100.00
8585;BME280;7180;52.742;11.420;2023-02-13T06:06:13;103160.19;;;6.73;100.00
8585;BME280;7180;52.742;11.420;2023-02-13T06:08:38;103160.19;;;6.71;100.00
8585;BME280;7180;52.742;11.420;2023-02-13T06:11:04;103160.19;;;6.68;100.00
8585;BME280;7180;52.742;11.420;2023-02-13T06:13:29;103174.13;;;6.75;100.00
8585;BME280;7180;52.742;11.420;2023-02-13T06:15:55;103172.38;;;6.72;100.00
8585;BME280;7180;52.742;11.420;2023-02-13T06:18:20;103173.28;;;6.71;100.00
8585;BME280;7180;52.742;11.420;2023-02-13T06:20:45;103176.75;;;6.75;100.00
8585;BME280;7180;52.742;11.420;2023-02-13T06:23:11;103176.75;;;6.76;100.00
8585;BME280;7180;52.742;11.420;2023-02-13T06:25:36;103183.69;;;6.77;100.00
8585;BME280;7180;52.742;11.420;2023-02-13T06:28:03;103173.25;;;6.74;100.00
8585;BME280;7180;52.742;11.420;2023-02-13T06:30:29;103181.09;;;6.74;100.00
8585;BME280;7180;52.742;11.420;2023-02-13T06:32:54;103181.97;;;6.75;100.00
8585;BME280;7180;52.742;11.420;2023-02-13T06:35:19;103186.31;;;6.79;100.00
8585;BME280;7180;52.742;11.420;2023-02-13T06:37:45;103190.66;;;6.84;100.00
8585;BME280;7180;52.742;11.420;2023-02-13T06:40:12;103196.78;;;6.80;100.00
8585;BME280;7180;52.742;11.420;2023-02-13T06:42:37;103198.53;;;6.81;100.00
8585;BME280;7180;52.742;11.420;2023-02-13T06:45:03;103201.13;;;6.81;100.00
8585;BME280;7180;52.742;11.420;2023-02-13T06:47:28;103209.84;;;6.83;100.00
8585;BME280;7180;52.742;11.420;2023-02-13T06:49:54;103199.41;;;6.80;100.00
8585;BME280;7180;52.742;11.420;2023-02-13T06:52:19;103208.13;;;6.82;100.00
8585;BME280;7180;52.742;11.420;2023-02-13T06:54:44;103212.47;;;6.83;100.00
8585;BME280;7180;52.742;11.420;2023-02-13T06:57:10;103211.56;;;6.84;100.00
8585;BME280;7180;52.742;11.420;2023-02-13T06:59:35;103211.56;;;6.84;100.00
8585;BME280;7180;52.742;11.420;2023-02-13T07:02:00;103215.97;;;6.84;100.00
8585;BME280;7180;52.742;11.420;2023-02-13T07:04:26;103211.59;;;6.83;100.00
8585;BME280;7180;52.742;11.420;2023-02-13T07:06:54;103202.88;;;6.85;100.00
8585;BME280;7180;52.742;11.420;2023-02-13T07:09:19;103212.44;;;6.88;100.00
8585;BME280;7180;52.742;11.420;2023-02-13T07:11:45;103212.47;;;6.83;100.00
8585;BME280;7180;52.742;11.420;2023-02-13T07:14:10;103209.00;;;6.86;100.00
8585;BME280;7180;52.742;11.420;2023-02-13T07:16:35;103214.19;;;6.89;100.00
8585;BME280;7180;52.742;11.420;2023-02-13T07:19:01;103217.66;;;6.95;100.00
8585;BME280;7180;52.742;11.420;2023-02-13T07:21:26;103201.97;;;6.95;100.00
8585;BME280;7180;52.742;11.420;2023-02-13T07:23:51;103202.84;;;6.97;100.00
8585;BME280;7180;52.742;11.420;2023-02-13T07:26:17;103197.59;;;7.03;100.00
8585;BME280;7180;52.742;11.420;2023-02-13T07:28:42;103202.84;;;7.02;100.00
8585;BME280;7180;52.742;11.420;2023-02-13T07:31:08;103202.84;;;6.97;100.00
8585;BME280;7180;52.742;11.420;2023-02-13T07:33:33;103188.91;;;6.98;100.00
8585;BME280;7180;52.742;11.420;2023-02-13T07:35:59;103188.91;;;6.98;100.00
8585;BME280;7180;52.742;11.420;2023-02-13T07:38:27;103198.47;;;7.05;100.00
8585;BME280;7180;52.742;11.420;2023-02-13T07:40:53;103194.09;;;7.04;100.00
8585;BME280;7180;52.742;11.420;2023-02-13T07:43:18;103189.75;;;7.03;100.00
8585;BME280;7180;52.742;11.420;2023-02-13T07:45:43;103190.59;;;7.11;100.00
8585;BME280;7180;52.742;11.420;2023-02-13T07:48:08;103194.06;;;7.13;100.00
8585;BME280;7180;52.742;11.420;2023-02-13T07:50:34;103195.78;;;7.20;100.00
8585;BME280;7180;52.742;11.420;2023-02-13T07:53:00;103187.09;;;7.21;100.00
8585;BME280;7180;52.742;11.420;2023-02-13T07:55:27;103196.66;;;7.28;100.00
8585;BME280;7180;52.742;11.420;2023-02-13T07:57:53;103200.13;;;7.30;100.00
8585;BME280;7180;52.742;11.420;2023-02-13T08:00:19;103194.03;;;7.30;100.00
8585;BME280;7180;52.742;11.420;2023-02-13T08:02:45;103197.50;;;7.30;100.00
8585;BME280;7180;52.742;11.420;2023-02-13T08:05:10;103190.53;;;7.29;100.00
8585;BME280;7180;52.742;11.420;2023-02-13T08:07:36;103194.00;;;7.31;100.00
8585;BME280;7180;52.742;11.420;2023-02-13T08:10:02;103200.97;;;7.35;100.00
8585;BME280;7180;52.742;11.420;2023-02-13T08:12:46;103206.22;;;7.35;100.00
8585;BME280;7180;52.742;11.420;2023-02-13T08:15:13;103207.06;;;7.39;100.00
8585;BME280;7180;52.742;11.420;2023-02-13T08:17:38;103201.88;;;7.34;100.00
8585;BME280;7180;52.742;11.420;2023-02-13T08:20:05;103194.91;;;7.30;100.00
8585;BME280;7180;52.742;11.420;2023-02-13T08:22:35;103207.91;;;7.44;100.00
8585;BME280;7180;52.742;11.420;2023-02-13T08:25:01;103211.41;;;7.48;100.00
8585;BME280;7180;52.742;11.420;2023-02-13T08:27:26;103204.47;;;7.44;100.00
8585;BME280;7180;52.742;11.420;2023-02-13T08:29:54;103197.47;;;7.43;100.00
8585;BME280;7180;52.742;11.420;2023-02-13T08:32:20;103198.31;;;7.46;100.00
8585;BME280;7180;52.742;11.420;2023-02-13T08:34:45;103190.50;;;7.38;100.00
8585;BME280;7180;52.742;11.420;2023-02-13T08:37:10;103190.47;;;7.45;100.00
8585;BME280;7180;52.742;11.420;2023-02-13T08:39:35;103186.09;;;7.48;100.00
8585;BME280;7180;52.742;11.420;2023-02-13T08:42:01;103190.47;;;7.46;100.00
8585;BME280;7180;52.742;11.420;2023-02-13T08:44:26;103191.31;;;7.53;100.00
8585;BME280;7180;52.742;11.420;2023-02-13T08:46:52;103184.28;;;7.59;100.00
8585;BME280;7180;52.742;11.420;2023-02-13T08:49:17;103183.38;;;7.66;100.00
8585;BME280;7180;52.742;11.420;2023-02-13T08:51:42;103176.38;;;7.70;100.00
8585;BME280;7180;52.742;11.420;2023-02-13T08:54:08;103175.47;;;7.75;100.00
8585;BME280;7180;52.742;11.420;2023-02-13T08:56:33;103167.63;;;7.74;100.00
8585;BME280;7180;52.742;11.420;2023-02-13T08:58:59;103162.47;;;7.63;100.00
8585;BME280;7180;52.742;11.420;2023-02-13T09:01:24;103168.50;;;7.71;100.00
8585;BME280;7180;52.742;11.420;2023-02-13T09:03:49;103167.56;;;7.83;100.00
8585;BME280;7180;52.742;11.420;2023-02-13T09:06:15;103162.28;;;7.90;100.00
8585;BME280;7180;52.742;11.420;2023-02-13T09:08:40;103164.88;;;7.92;100.00
8585;BME280;7180;52.742;11.420;2023-02-13T09:11:06;103163.16;;;7.92;100.00
8585;BME280;7180;52.742;11.420;2023-02-13T09:13:32;103165.75;;;7.94;100.00
8585;BME280;7180;52.742;11.420;2023-02-13T09:15:59;103150.00;;;7.97;100.00
8585;BME280;7180;52.742;11.420;2023-02-13T09:18:26;103159.59;;;7.99;100.00
8585;BME280;7180;52.742;11.420;2023-02-13T09:20:57;103143.88;;;7.96;100.00
8585;BME280;7180;52.742;11.420;2023-02-13T09:23:22;103139.53;;;7.97;100.00
8585;BME280;7180;52.742;11.420;2023-02-13T09:25:48;103136.88;;;8.03;100.00
8585;BME280;7180;52.742;11.420;2023-02-13T09:28:13;103137.75;;;7.99;100.00
8585;BME280;7180;52.742;11.420;2023-02-13T09:30:38;103137.72;;;8.05;100.00
8585;BME280;7180;52.742;11.420;2023-02-13T09:33:09;103129.88;;;8.00;100.00
8585;BME280;7180;52.742;11.420;2023-02-13T09:35:35;103133.28;;;8.11;100.00
8585;BME280;7180;52.742;11.420;2023-02-13T09:38:00;103116.75;;;8.05;100.00
8585;BME280;7180;52.742;11.420;2023-02-13T09:40:30;103119.31;;;8.11;100.00
8585;BME280;7180;52.742;11.420;2023-02-13T09:45:47;103107.88;;;8.18;100.00
8585;BME280;7180;52.742;11.420;2023-02-13T09:48:18;103102.69;;;8.15;100.00
8585;BME280;7180;52.742;11.420;2023-02-13T09:50:48;103101.75;;;8.20;100.00
8585;BME280;7180;52.742;11.420;2023-02-13T09:53:20;103094.75;;;8.27;100.00
8585;BME280;7180;52.742;11.420;2023-02-13T09:55:51;103092.09;;;8.30;100.00
8585;BME280;7180;52.742;11.420;2023-02-13T09:58:37;103095.53;;;8.35;100.00
8585;BME280;7180;52.742;11.420;2023-02-13T10:01:10;103090.22;;;8.44;100.00
8585;BME280;7180;52.742;11.420;2023-02-13T10:03:48;103086.63;;;8.51;100.00
8585;BME280;7180;52.742;11.420;2023-02-13T10:06:26;103084.00;;;8.56;100.00
8585;BME280;7180;52.742;11.420;2023-02-13T10:09:12;103070.00;;;8.55;100.00
8585;BME280;7180;52.742;11.420;2023-02-13T10:14:36;103063.78;;;8.62;100.00
8585;BME280;7180;52.742;11.420;2023-02-13T10:17:11;103053.34;;;8.58;100.00
8585;BME280;7180;52.742;11.420;2023-02-13T10:19:42;103033.31;;;8.54;100.00
8585;BME280;7180;52.742;11.420;2023-02-13T10:22:22;103032.44;;;8.53;100.00
8585;BME280;7180;52.742;11.420;2023-02-13T10:24:53;103027.25;;;8.46;100.00
8585;BME280;7180;52.742;11.420;2023-02-13T10:27:23;103025.53;;;8.46;100.00
8585;BME280;7180;52.742;11.420;2023-02-13T10:29:58;103027.28;;;8.44;100.00
8585;BME280;7180;52.742;11.420;2023-02-13T10:32:40;103035.06;;;8.52;100.00
8585;BME280;7180;52.742;11.420;2023-02-13T10:35:26;103040.22;;;8.59;100.00
8585;BME280;7180;52.742;11.420;2023-02-13T10:37:55;103030.56;;;8.63;100.00
8585;BME280;7180;52.742;11.420;2023-02-13T10:40:26;103016.56;;;8.64;100.00
8585;BME280;7180;52.742;11.420;2023-02-13T10:43:06;103027.00;;;8.68;100.00
8585;BME280;7180;52.742;11.420;2023-02-13T10:48:28;103027.78;;;8.76;100.00
8585;BME280;7180;52.742;11.420;2023-02-13T10:53:47;103011.13;;;8.79;100.00
8585;BME280;7180;52.742;11.420;2023-02-13T10:56:27;102998.03;;;8.79;100.00
8585;BME280;7180;52.742;11.420;2023-02-13T10:59:28;103006.59;;;8.91;100.00
8585;BME280;7180;52.742;11.420;2023-02-13T11:02:01;102986.47;;;8.90;100.00
8585;BME280;7180;52.742;11.420;2023-02-13T11:04:28;102962.06;;;8.85;100.00
8585;BME280;7180;52.742;11.420;2023-02-13T11:07:00;102962.06;;;8.85;100.00
8585;BME280;7180;52.742;11.420;2023-02-13T11:09:26;102953.44;;;8.76;100.00
8585;BME280;7180;52.742;11.420;2023-02-13T11:11:53;102957.75;;;8.80;100.00
8585;BME280;7180;52.742;11.420;2023-02-13T11:14:23;102976.00;;;8.89;100.00
8585;BME280;7180;52.742;11.420;2023-02-13T11:17:01;102974.25;;;8.89;100.00
8585;BME280;7180;52.742;11.420;2023-02-13T11:19:48;102955.09;;;8.84;100.00
8585;BME280;7180;52.742;11.420;2023-02-13T11:22:27;102956.00;;;8.80;100.00
8585;BME280;7180;52.742;11.420;2023-02-13T11:25:00;102954.97;;;8.90;100.00
8585;BME280;7180;52.742;11.420;2023-02-13T11:27:31;102960.97;;;9.00;100.00
8585;BME280;7180;52.742;11.420;2023-02-13T11:30:06;102951.25;;;9.06;100.00
8585;BME280;7180;52.742;11.420;2023-02-13T11:33:00;102926.03;;;8.96;100.00
8585;BME280;7180;52.742;11.420;2023-02-13T11:35:33;102913.81;;;8.95;100.00
8585;BME280;7180;52.742;11.420;2023-02-13T11:40:40;102917.94;;;9.11;100.00
8585;BME280;7180;52.742;11.420;2023-02-13T11:43:17;102904.78;;;9.13;100.00
8585;BME280;7180;52.742;11.420;2023-02-13T11:45:43;102886.53;;;9.05;100.00
8585;BME280;7180;52.742;11.420;2023-02-13T11:48:19;102885.63;;;9.08;100.00
8585;BME280;7180;52.742;11.420;2023-02-13T11:50:51;102869.06;;;9.03;100.00
8585;BME280;7180;52.742;11.420;2023-02-13T11:53:19;102867.47;;;8.94;100.00
8585;BME280;7180;52.742;11.420;2023-02-13T11:56:00;102876.13;;;8.99;100.00
8585;BME280;7180;52.742;11.420;2023-02-13T11:58:27;102870.94;;;8.96;100.00
8585;BME280;7180;52.742;11.420;2023-02-13T12:04:16;102880.63;;;8.93;100.00
8585;BME280;7180;52.742;11.420;2023-02-13T12:07:16;102888.31;;;9.03;100.00
8585;BME280;7180;52.742;11.420;2023-02-13T12:09:44;102892.56;;;9.10;100.00
8585;BME280;7180;52.742;11.420;2023-02-13T12:12:18;102884.66;;;9.13;100.00
8585;BME280;7180;52.742;11.420;2023-02-13T12:14:46;102851.66;;;8.97;100.00
8585;BME280;7180;52.742;11.420;2023-02-13T12:17:19;102848.25;;;8.92;100.00
8585;BME280;7180;52.742;11.420;2023-02-13T12:19:47;102841.34;;;8.87;100.00
8585;BME280;7180;52.742;11.420;2023-02-13T12:22:21;102841.47;;;8.79;100.00
8585;BME280;7180;52.742;11.420;2023-02-13T12:36:21;102876.81;;;8.54;100.00
8585;BME280;7180;52.742;11.420;2023-02-13T12:39:15;102889.19;;;8.46;100.00
8585;BME280;7180;52.742;11.420;2023-02-13T12:47:37;102939.97;;;8.36;100.00
8585;BME280;7180;52.742;11.420;2023-02-13T12:50:19;102950.44;;;8.39;100.00
8585;BME280;7180;52.742;11.420;2023-02-13T13:01:44;102986.31;;;8.34;100.00
8585;BME280;7180;52.742;11.420;2023-02-13T13:04:22;102973.28;;;8.28;100.00
8585;BME280;7180;52.742;11.420;2023-02-13T13:09:55;102973.97;;;8.44;100.00
8585;BME280;7180;52.742;11.420;2023-02-13T13:12:38;102967.84;;;8.43;100.00
8585;BME280;7180;52.742;11.420;2023-02-13T13:17:56;102936.25;;;8.55;100.00
8585;BME280;7180;52.742;11.420;2023-02-13T13:20:36;102889.09;;;8.51;100.00
8585;BME280;7180;52.742;11.420;2023-02-13T13:23:14;102857.78;;;8.40;100.00
8585;BME280;7180;52.742;11.420;2023-02-13T13:25:50;102825.44;;;8.43;100.00
8585;BME280;7180;52.742;11.420;2023-02-13T13:28:22;102788.69;;;8.44;100.00
8585;BME280;7180;52.742;11.420;2023-02-13T13:30:48;102753.72;;;8.45;100.00
8585;BME280;7180;52.742;11.420;2023-02-13T13:33:17;102724.00;;;8.46;100.00
8585;BME280;7180;52.742;11.420;2023-02-13T13:35:54;102715.03;;;8.58;100.00
8585;BME280;7180;52.742;11.420;2023-02-13T13:38:36;102704.44;;;8.65;100.00
8585;BME280;7180;52.742;11.420;2023-02-13T13:41:22;102668.63;;;8.64;100.00
8585;BME280;7180;52.742;11.420;2023-02-13T13:44:00;102658.94;;;8.68;100.00
8585;BME280;7180;52.742;11.420;2023-02-13T13:52:21;102613.66;;;8.58;100.00
8585;BME280;7180;52.742;11.420;2023-02-13T13:54:47;102620.47;;;8.67;100.00
8585;BME280;7180;52.742;11.420;2023-02-13T13:57:17;102610.84;;;8.67;100.00
8585;BME280;7180;52.742;11.420;2023-02-13T14:05:55;102591.66;;;8.65;100.00
8585;BME280;7180;52.742;11.420;2023-02-13T14:07:52;102605.50;;;8.73;100.00
8585;BME280;7180;52.742;11.420;2023-02-13T14:20:41;102621.28;;;8.70;100.00
8585;BME280;7180;52.742;11.420;2023-02-13T14:23:13;102614.38;;;8.66;100.00
8585;BME280;7180;52.742;11.420;2023-02-13T14:25:42;102609.94;;;8.70;100.00
8585;BME280;7180;52.742;11.420;2023-02-13T14:28:19;102633.41;;;8.77;100.00
8585;BME280;7180;52.742;11.420;2023-02-13T14:30:48;102601.31;;;8.65;100.00
8585;BME280;7180;52.742;11.420;2023-02-13T14:33:25;102619.75;;;8.60;100.00
8585;BME280;7180;52.742;11.420;2023-02-13T14:36:00;102639.09;;;8.53;100.00
8585;BME280;7180;52.742;11.420;2023-02-13T14:38:26;102613.09;;;8.41;100.00
8585;BME280;7180;52.742;11.420;2023-02-13T14:40:52;102576.44;;;8.38;100.00
8585;BME280;7180;52.742;11.420;2023-02-13T14:43:20;102557.22;;;8.39;100.00
8585;BME280;7180;52.742;11.420;2023-02-13T14:45:50;102541.53;;;8.36;99.71
8585;BME280;7180;52.742;11.420;2023-02-13T14:48:19;102525.78;;;8.36;99.67
8585;BME280;7180;52.742;11.420;2023-02-13T14:50:49;102502.31;;;8.31;99.37
8585;BME280;7180;52.742;11.420;2023-02-13T14:53:23;102486.50;;;8.34;98.84
8585;BME280;7180;52.742;11.420;2023-02-13T14:55:55;102465.53;;;8.34;98.62